createdAt,value
2022-07-28T00:01:07.873Z,15.20
2022-07-28T00:06:09.758Z,15.20
2022-07-28T00:11:11.538Z,15.10
2022-07-28T00:16:13.332Z,15.10
2022-07-28T00:21:15.194Z,15.10
2022-07-28T00:26:16.997Z,15.10
2022-07-28T00:31:18.817Z,15.00
2022-07-28T00:36:24.578Z,15.00
2022-07-28T00:41:27.456Z,15.00
2022-07-28T00:46:29.357Z,15.00
2022-07-28T00:51:32.238Z,14.90
2022-07-28T00:56:34.573Z,15.00
2022-07-28T01:01:37.479Z,15.00
2022-07-28T01:06:52.068Z,14.90
2022-07-28T01:12:25.531Z,14.90
2022-07-28T01:17:39.685Z,14.80
2022-07-28T01:22:58.452Z,14.80
2022-07-28T01:28:21.548Z,14.80
2022-07-28T01:33:38.191Z,14.70
2022-07-28T01:38:42.060Z,14.80
2022-07-28T01:43:48.193Z,14.60
2022-07-28T01:48:50.844Z,14.50
2022-07-28T01:53:54.184Z,14.50
2022-07-28T01:58:59.705Z,14.40
2022-07-28T02:04:04.452Z,14.30
2022-07-28T02:09:08.276Z,14.20
2022-07-28T02:14:24.559Z,14.10
2022-07-28T02:19:27.998Z,14.10
2022-07-28T02:24:31.712Z,14.00
2022-07-28T02:29:50.709Z,13.90
2022-07-28T02:34:55.185Z,13.90
2022-07-28T02:40:00.808Z,13.70
2022-07-28T02:45:06.864Z,13.70
2022-07-28T02:50:09.391Z,13.60
2022-07-28T02:55:14.481Z,13.50
2022-07-28T03:00:16.584Z,13.50
2022-07-28T03:05:19.038Z,13.40
2022-07-28T03:10:33.458Z,13.40
2022-07-28T03:15:37.639Z,13.40
2022-07-28T03:20:39.364Z,13.30
2022-07-28T03:25:48.571Z,13.30
2022-07-28T03:31:00.323Z,13.20
2022-07-28T03:36:08.683Z,13.10
2022-07-28T03:41:11.355Z,13.10
2022-07-28T03:46:13.574Z,13.00
2022-07-28T03:51:15.624Z,13.00
2022-07-28T03:56:17.508Z,13.00
2022-07-28T04:01:19.356Z,12.90
2022-07-28T04:06:21.178Z,12.80
2022-07-28T04:11:23.217Z,12.80
2022-07-28T04:16:25.014Z,12.80
2022-07-28T04:21:26.872Z,12.80
2022-07-28T04:26:28.630Z,12.80
2022-07-28T04:31:30.758Z,12.80
2022-07-28T04:36:32.872Z,12.80
2022-07-28T04:41:35.306Z,12.90
2022-07-28T04:46:37.015Z,12.90
2022-07-28T04:51:38.815Z,12.90
2022-07-28T04:56:40.820Z,13.00
2022-07-28T05:01:43.246Z,13.00
2022-07-28T05:06:45.528Z,13.00
2022-07-28T05:11:47.612Z,13.00
2022-07-28T05:16:50.016Z,13.00
2022-07-28T05:21:51.853Z,13.10
2022-07-28T05:26:53.567Z,13.10
2022-07-28T05:31:55.539Z,13.30
2022-07-28T05:36:57.360Z,13.40
2022-07-28T05:42:00.034Z,13.50
2022-07-28T05:47:01.821Z,13.60
2022-07-28T05:52:03.768Z,13.60
2022-07-28T05:57:05.462Z,13.70
2022-07-28T06:02:07.284Z,13.80
2022-07-28T06:07:09.118Z,13.90
2022-07-28T06:12:10.914Z,14.00
2022-07-28T06:17:14.866Z,14.10
2022-07-28T06:22:16.717Z,14.30
2022-07-28T06:27:18.452Z,14.40
2022-07-28T06:32:20.255Z,14.50
2022-07-28T06:37:22.038Z,14.60
2022-07-28T06:42:24.044Z,14.80
2022-07-28T06:47:25.822Z,14.90
2022-07-28T06:52:27.755Z,15.10
2022-07-28T06:57:33.723Z,15.20
2022-07-28T07:02:40.070Z,15.40
2022-07-28T07:07:43.504Z,15.40
2022-07-28T07:12:45.827Z,15.60
2022-07-28T07:17:47.581Z,15.70
2022-07-28T07:22:49.436Z,15.90
2022-07-28T07:27:51.136Z,16.00
2022-07-28T07:32:52.971Z,16.20
2022-07-28T07:37:56.033Z,16.40
2022-07-28T07:42:57.773Z,16.50
2022-07-28T07:47:59.654Z,16.70
2022-07-28T07:53:01.538Z,16.90
2022-07-28T07:58:03.858Z,17.00
2022-07-28T08:03:11.092Z,17.30
2022-07-28T08:08:13.447Z,17.50
2022-07-28T08:13:15.207Z,17.60
2022-07-28T08:18:17.082Z,17.80
2022-07-28T08:23:24.252Z,18.00
2022-07-28T08:28:28.001Z,18.20
2022-07-28T08:33:30.514Z,18.40
2022-07-28T08:38:32.399Z,18.40
2022-07-28T08:43:38.115Z,18.70
2022-07-28T08:48:40.050Z,18.80
2022-07-28T08:53:43.294Z,19.10
2022-07-28T08:58:45.062Z,19.30
2022-07-28T09:03:46.910Z,19.40
2022-07-28T09:08:48.865Z,19.60
2022-07-28T09:13:54.042Z,19.80
2022-07-28T09:18:58.323Z,20.00
2022-07-28T09:24:01.429Z,20.40
2022-07-28T09:29:04.304Z,20.60
2022-07-28T09:34:06.349Z,20.70
2022-07-28T09:39:08.678Z,20.90
2022-07-28T09:44:21.705Z,21.00
2022-07-28T09:49:42.058Z,21.20
2022-07-28T09:55:11.937Z,21.30
2022-07-28T10:00:27.911Z,21.50
2022-07-28T10:05:40.824Z,21.70
2022-07-28T10:10:42.677Z,21.90
2022-07-28T10:16:19.982Z,21.90
2022-07-28T10:21:24.594Z,22.00
2022-07-28T10:26:32.675Z,22.00
2022-07-28T10:31:39.173Z,22.20
2022-07-28T10:36:43.026Z,22.30
2022-07-28T10:41:45.135Z,22.40
2022-07-28T10:46:47.410Z,22.40
2022-07-28T10:52:06.474Z,22.70
2022-07-28T10:57:13.605Z,22.80
2022-07-28T11:02:51.001Z,23.00
2022-07-28T11:07:53.090Z,23.20
2022-07-28T11:12:57.289Z,23.30
2022-07-28T11:18:09.888Z,23.40
2022-07-28T11:23:47.751Z,23.60
2022-07-28T11:29:05.585Z,23.80
2022-07-28T11:34:08.807Z,24.00
2022-07-28T11:39:27.943Z,24.10
2022-07-28T11:44:32.049Z,24.20
2022-07-28T11:49:33.995Z,24.40
2022-07-28T11:54:39.711Z,24.40
2022-07-28T11:59:47.280Z,24.40
2022-07-28T12:05:14.575Z,24.40
2022-07-28T12:15:56.965Z,24.60
2022-07-28T12:21:04.589Z,24.60
2022-07-28T12:26:07.036Z,24.60
2022-07-28T12:31:15.692Z,24.70
2022-07-28T12:36:19.419Z,24.60
2022-07-28T12:41:22.287Z,24.70
2022-07-28T12:46:28.571Z,24.80
2022-07-28T12:51:30.564Z,25.10
2022-07-28T12:56:43.953Z,25.20
2022-07-28T13:01:52.116Z,25.20
2022-07-28T13:06:57.089Z,25.20
2022-07-28T13:11:58.889Z,25.10
2022-07-28T13:17:00.959Z,25.10
2022-07-28T13:22:09.317Z,25.20
2022-07-28T13:27:11.333Z,25.20
2022-07-28T13:32:13.294Z,25.10
2022-07-28T13:37:15.405Z,25.20
2022-07-28T13:42:18.003Z,25.20
2022-07-28T13:47:19.781Z,25.30
2022-07-28T13:52:33.312Z,25.40
2022-07-28T13:57:36.997Z,25.40
2022-07-28T14:02:38.901Z,25.60
2022-07-28T14:07:48.363Z,25.60
2022-07-28T14:12:50.879Z,25.60
2022-07-28T14:17:53.201Z,25.60
2022-07-28T14:22:54.926Z,25.60
2022-07-28T14:27:56.828Z,25.60
2022-07-28T14:32:58.593Z,25.70
2022-07-28T14:38:50.267Z,25.80
2022-07-28T14:43:22.206Z,25.80
2022-07-28T14:48:23.993Z,25.90
2022-07-28T14:53:27.659Z,25.90
2022-07-28T14:58:29.961Z,25.90
2022-07-28T15:03:36.400Z,25.90
2022-07-28T15:08:38.396Z,25.80
2022-07-28T15:13:40.190Z,25.80
2022-07-28T15:18:42.138Z,25.80
2022-07-28T15:23:44.532Z,25.80
2022-07-28T15:28:48.490Z,25.80
2022-07-28T15:33:54.889Z,25.80
2022-07-28T15:38:59.655Z,25.80
2022-07-28T15:44:01.590Z,25.80
2022-07-28T15:49:11.082Z,25.70
2022-07-28T15:54:13.304Z,25.70
2022-07-28T15:59:15.358Z,25.60
2022-07-28T16:04:17.510Z,25.60
2022-07-28T16:09:19.638Z,25.60
2022-07-28T16:14:21.431Z,25.60
2022-07-28T16:19:46.663Z,25.60
2022-07-28T16:24:47.096Z,25.60
2022-07-28T16:29:49.488Z,25.60
2022-07-28T16:34:51.773Z,25.60
2022-07-28T16:39:53.593Z,25.50
2022-07-28T16:44:55.641Z,25.50
2022-07-28T16:49:57.659Z,25.50
2022-07-28T16:55:00.235Z,25.50
2022-07-28T17:00:02.045Z,25.50
2022-07-28T17:05:04.545Z,25.40
2022-07-28T17:10:07.127Z,25.40
2022-07-28T17:15:21.790Z,25.30
2022-07-28T17:20:25.420Z,25.30
2022-07-28T17:30:49.268Z,25.20
2022-07-28T17:35:51.183Z,25.10
2022-07-28T17:40:54.194Z,25.10
2022-07-28T17:45:56.027Z,25.00
2022-07-28T17:50:58.043Z,24.90
2022-07-28T17:56:01.364Z,24.80
2022-07-28T18:01:09.928Z,24.70
2022-07-28T18:06:13.071Z,24.60
2022-07-28T18:11:14.901Z,24.60
2022-07-28T18:16:16.783Z,24.50
2022-07-28T18:21:18.605Z,24.40
2022-07-28T18:26:20.350Z,24.30
2022-07-28T18:31:22.150Z,24.20
2022-07-28T18:36:23.933Z,24.10
2022-07-28T18:41:25.694Z,24.00
2022-07-28T18:46:27.527Z,24.00
2022-07-28T18:51:29.433Z,23.90
2022-07-28T18:56:31.168Z,23.80
2022-07-28T19:01:33.008Z,23.70
2022-07-28T19:06:36.152Z,23.60
2022-07-28T19:11:41.183Z,23.50
2022-07-28T19:16:45.806Z,23.50
2022-07-28T19:21:50.768Z,23.40
2022-07-28T19:26:53.745Z,23.30
2022-07-28T19:31:55.580Z,23.30
2022-07-28T19:36:57.791Z,23.20
2022-07-28T19:41:59.820Z,23.10
2022-07-28T19:47:01.779Z,23.00
2022-07-28T19:52:03.728Z,22.90
2022-07-28T19:57:10.210Z,22.80
2022-07-28T20:02:14.977Z,22.70
2022-07-28T20:07:16.886Z,22.70
2022-07-28T20:12:18.706Z,22.60
2022-07-28T20:17:37.308Z,22.40
2022-07-28T20:22:43.234Z,22.30
2022-07-28T20:27:45.124Z,22.20
2022-07-28T20:32:46.888Z,22.00
2022-07-28T20:37:48.681Z,21.90
2022-07-28T20:42:53.304Z,21.80
2022-07-28T20:47:55.293Z,21.70
2022-07-28T20:52:57.050Z,21.60
2022-07-28T20:57:58.898Z,21.50
2022-07-28T21:03:02.196Z,21.40
2022-07-28T21:08:09.473Z,21.30
2022-07-28T21:13:18.257Z,21.30
2022-07-28T21:18:20.064Z,21.10
2022-07-28T21:23:21.798Z,21.10
2022-07-28T21:28:42.120Z,21.00
2022-07-28T21:33:43.889Z,20.90
2022-07-28T21:38:46.169Z,20.70
2022-07-28T21:43:47.973Z,20.60
2022-07-28T21:48:53.962Z,20.60
2022-07-28T21:53:56.791Z,20.50
2022-07-28T21:58:58.612Z,20.40
2022-07-28T22:04:00.415Z,20.40
2022-07-28T22:09:02.226Z,20.40
2022-07-28T22:14:04.455Z,20.30
2022-07-28T22:19:06.274Z,20.30
2022-07-28T22:24:08.476Z,20.20
2022-07-28T22:29:11.307Z,20.20
2022-07-28T22:34:14.026Z,20.10
2022-07-28T22:39:15.978Z,20.00
2022-07-28T22:44:18.104Z,20.00
2022-07-28T22:49:20.465Z,20.00
2022-07-28T22:54:23.239Z,19.90
2022-07-28T22:59:24.894Z,19.80
2022-07-28T23:04:26.872Z,19.80
2022-07-28T23:09:28.997Z,19.70
2022-07-28T23:14:30.772Z,19.60
2022-07-28T23:19:32.529Z,19.60
2022-07-28T23:24:34.276Z,19.50
2022-07-28T23:29:35.990Z,19.50
2022-07-28T23:34:37.819Z,19.50
2022-07-28T23:39:39.518Z,19.40
2022-07-28T23:44:41.189Z,19.40
2022-07-28T23:49:43.129Z,19.40
2022-07-28T23:54:44.834Z,19.30
2022-07-28T23:59:46.567Z,19.30
